Time;durP1;ratioP1;P1;durP2;ratioP2;P2;SDS_P1;SDS_P2;PMS_P1;PMS_P2;Temp;Humidity;BMP_temperature;BMP_pressure;BME280_temperature;BME280_humidity;BME280_pressure;Samples;Min_cycle;Max_cycle;Signal;HPM_P1;HPM_P2
2022/03/06 00:00:03;;;;;;;344.20;101.87;;;;;;;4.42;100.00;99629.72;342647;28;1000;-68
2022/03/06 00:00:13;;;;;;;345.17;101.20;;;;;;;4.40;100.00;99618.53;340770;28;1980;-68
2022/03/06 00:00:24;;;;;;;345.00;100.40;;;;;;;4.41;100.00;99610.72;343981;28;1116;-68
2022/03/06 00:00:34;;;;;;;347.47;102.50;;;;;;;4.39;100.00;99622.84;344080;28;895;-67
2022/03/06 00:00:45;;;;;;;343.52;101.10;;;;;;;4.39;100.00;99619.41;343977;28;1115;-68
2022/03/06 00:00:55;;;;;;;340.60;98.60;;;;;;;4.38;100.00;99609.94;345415;28;911;-69
2022/03/06 00:01:06;;;;;;;333.20;94.97;;;;;;;4.38;100.00;99612.53;342552;28;1344;-69
2022/03/06 00:01:16;;;;;;;332.67;94.63;;;;;;;4.39;100.00;99622.00;342769;28;916;-69
2022/03/06 00:01:27;;;;;;;336.40;97.20;;;;;;;4.40;100.00;99628.91;340730;29;2567;-70
2022/03/06 00:01:37;;;;;;;339.80;99.30;;;;;;;4.39;100.00;99606.47;344014;28;1228;-70
2022/03/06 00:01:48;;;;;;;337.98;98.85;;;;;;;4.35;100.00;99619.47;343963;28;862;-69
2022/03/06 00:01:58;;;;;;;334.95;96.80;;;;;;;4.35;100.00;99616.88;345400;28;1222;-69
2022/03/06 00:02:08;;;;;;;336.67;98.03;;;;;;;4.38;100.00;99620.28;342761;28;1481;-69
2022/03/06 00:02:19;;;;;;;341.60;99.63;;;;;;;4.40;100.00;99613.34;341435;29;845;-69
2022/03/06 00:02:29;;;;;;;343.80;101.37;;;;;;;4.39;100.00;99609.91;342677;28;937;-68
2022/03/06 00:02:41;;;;;;;346.70;103.07;;;;;;;4.43;100.00;99608.13;342732;28;913;-68
2022/03/06 00:02:51;;;;;;;346.05;104.82;;;;;;;4.45;100.00;99612.41;341451;29;925;-69
2022/03/06 00:03:04;;;;;;;351.63;107.78;;;;;;;4.47;100.00;99615.81;341500;29;986;-69
2022/03/06 00:03:14;;;;;;;354.83;110.00;;;;;;;4.51;100.00;99619.22;343920;28;900;-69
2022/03/06 00:03:25;;;;;;;356.52;110.07;;;;;;;4.53;100.00;99614.88;341473;28;1622;-69
2022/03/06 00:03:35;;;;;;;354.40;108.90;;;;;;;4.51;100.00;99612.31;342598;28;1204;-69
2022/03/06 00:03:45;;;;;;;355.08;109.20;;;;;;;4.51;100.00;99616.63;344177;28;878;-69
2022/03/06 00:03:56;;;;;;;355.57;109.53;;;;;;;4.47;100.00;99615.81;343972;28;1220;-69
2022/03/06 00:04:06;;;;;;;353.40;108.05;;;;;;;4.48;100.00;99616.69;345412;28;823;-69
2022/03/06 00:04:16;;;;;;;351.70;106.20;;;;;;;4.49;100.00;99608.03;343945;28;1184;-69
2022/03/06 00:04:27;;;;;;;351.77;106.70;;;;;;;4.49;100.00;99608.03;341118;28;1177;-69
2022/03/06 00:04:37;;;;;;;351.58;107.07;;;;;;;4.51;100.00;99612.31;345370;28;1403;-69
2022/03/06 00:04:48;;;;;;;351.93;108.07;;;;;;;4.54;100.00;99616.59;342748;28;972;-69
2022/03/06 00:04:58;;;;;;;352.50;109.05;;;;;;;4.56;100.00;99610.50;345468;28;878;-69
2022/03/06 00:05:08;;;;;;;353.60;109.40;;;;;;;4.55;100.00;99616.56;343344;28;1185;-69
2022/03/06 00:05:19;;;;;;;351.52;109.32;;;;;;;4.58;100.00;99613.06;342641;28;845;-69
2022/03/06 00:05:30;;;;;;;352.13;109.50;;;;;;;4.57;100.00;99611.34;342707;28;856;-69
2022/03/06 00:05:40;;;;;;;353.98;111.10;;;;;;;4.57;100.00;99611.34;342757;28;857;-69
2022/03/06 00:05:50;;;;;;;357.45;110.85;;;;;;;4.58;100.00;99616.50;344097;28;934;-69
2022/03/06 00:06:01;;;;;;;356.67;110.10;;;;;;;4.56;100.00;99614.81;344001;28;1525;-69
2022/03/06 00:06:13;;;;;;;354.93;109.03;;;;;;;4.58;100.00;99615.66;343571;28;1786;-69
2022/03/06 00:06:23;;;;;;;352.40;106.47;;;;;;;4.56;100.00;99609.63;340875;29;2221;-69
2022/03/06 00:06:34;;;;;;;349.57;104.10;;;;;;;4.54;100.00;99614.00;343877;28;1163;-69
2022/03/06 00:06:44;;;;;;;345.90;102.53;;;;;;;4.51;100.00;99612.31;346555;28;1578;-69
2022/03/06 00:06:55;;;;;;;343.30;101.50;;;;;;;4.48;100.00;99607.16;343874;28;1985;-69
2022/03/06 00:07:05;;;;;;;343.80;101.80;;;;;;;4.49;100.00;99611.47;341315;28;1243;-69
2022/03/06 00:07:15;;;;;;;349.97;104.17;;;;;;;4.50;100.00;99614.91;342830;28;2035;-69
2022/03/06 00:07:26;;;;;;;346.07;102.93;;;;;;;4.45;100.00;99611.53;342698;28;907;-69
2022/03/06 00:07:37;;;;;;;347.15;102.80;;;;;;;4.44;100.00;99608.09;344278;28;854;-69
2022/03/06 00:07:47;;;;;;;345.58;102.15;;;;;;;4.45;100.00;99611.53;342653;28;1381;-69
2022/03/06 00:07:59;;;;;;;346.80;101.53;;;;;;;4.42;100.00;99606.41;342769;28;865;-69
2022/03/06 00:08:09;;;;;;;341.90;98.97;;;;;;;4.42;100.00;99606.41;341379;29;1414;-69
2022/03/06 00:08:19;;;;;;;339.90;99.30;;;;;;;4.40;100.00;99611.63;344015;28;895;-69
2022/03/06 00:08:30;;;;;;;344.03;103.67;;;;;;;4.42;100.00;99611.59;341876;28;1208;-69
2022/03/06 00:08:41;;;;;;;345.90;105.77;;;;;;;4.42;100.00;99607.25;342765;28;920;-69
2022/03/06 00:08:51;;;;;;;347.20;106.35;;;;;;;4.45;100.00;99606.38;342697;28;1514;-69
2022/03/06 00:09:02;;;;;;;345.00;104.53;;;;;;;4.44;100.00;99599.47;342735;28;873;-69
2022/03/06 00:09:12;;;;;;;338.80;99.57;;;;;;;4.37;100.00;99605.63;343944;28;1022;-69
2022/03/06 00:09:23;;;;;;;338.57;98.57;;;;;;;4.40;100.00;99600.41;342762;28;961;-69
2022/03/06 00:09:33;;;;;;;344.25;101.20;;;;;;;4.44;100.00;99612.41;342686;28;1031;-69
2022/03/06 00:09:44;;;;;;;349.20;104.28;;;;;;;4.46;100.00;99608.06;345347;28;1137;-69
2022/03/06 00:09:54;;;;;;;345.33;102.87;;;;;;;4.45;100.00;99611.53;346711;28;860;-69
2022/03/06 00:10:05;;;;;;;345.85;102.30;;;;;;;4.45;100.00;99611.53;345509;28;1053;-69
2022/03/06 00:10:16;;;;;;;349.17;103.35;;;;;;;4.44;100.00;99615.88;341423;28;1530;-69
2022/03/06 00:10:27;;;;;;;348.67;102.50;;;;;;;4.40;100.00;99603.84;342535;28;1479;-69
2022/03/06 00:10:37;;;;;;;344.00;100.77;;;;;;;4.41;100.00;99599.50;341517;28;1025;-69
2022/03/06 00:10:48;;;;;;;343.13;101.10;;;;;;;4.45;100.00;99603.78;342740;28;1403;-69
2022/03/06 00:10:59;;;;;;;348.20;104.35;;;;;;;4.47;100.00;99607.19;343600;28;1767;-69
2022/03/06 00:11:09;;;;;;;349.33;105.07;;;;;;;4.44;100.00;99609.84;344103;28;1199;-69
2022/03/06 00:11:19;;;;;;;345.55;102.65;;;;;;;4.44;100.00;99605.50;341282;29;1611;-69
2022/03/06 00:11:30;;;;;;;345.47;102.47;;;;;;;4.46;100.00;99603.75;342924;28;980;-69
2022/03/06 00:11:40;;;;;;;347.77;106.65;;;;;;;4.44;100.00;99594.28;343522;28;983;-69
2022/03/06 00:11:51;;;;;;;348.50;106.07;;;;;;;4.38;100.00;99605.59;343956;28;1055;-69
2022/03/06 00:12:02;;;;;;;343.33;102.60;;;;;;;4.37;100.00;99597.84;342497;28;1458;-69
2022/03/06 00:12:12;;;;;;;340.20;99.03;;;;;;;4.39;100.00;99601.28;344016;28;999;-69
2022/03/06 00:12:23;;;;;;;340.23;98.90;;;;;;;4.37;100.00;99600.44;342602;28;979;-68
2022/03/06 00:12:33;;;;;;;339.27;98.38;;;;;;;4.34;100.00;99615.16;343961;28;1384;-68
2022/03/06 00:12:44;;;;;;;341.37;98.40;;;;;;;4.34;100.00;99603.94;342593;28;1375;-68
2022/03/06 00:12:54;;;;;;;343.70;102.05;;;;;;;4.37;100.00;99608.22;344074;28;898;-68
2022/03/06 00:13:04;;;;;;;347.83;104.73;;;;;;;4.38;100.00;99615.09;342726;28;1027;-68
2022/03/06 00:13:15;;;;;;;344.50;103.85;;;;;;;4.34;100.00;99602.19;341310;28;1528;-68
2022/03/06 00:13:25;;;;;;;341.90;100.43;;;;;;;4.35;100.00;99600.47;341344;29;980;-68
2022/03/06 00:13:36;;;;;;;344.13;100.97;;;;;;;4.37;100.00;99608.22;342694;28;1931;-68
2022/03/06 00:13:46;;;;;;;340.90;98.97;;;;;;;4.33;100.00;99603.09;344124;28;841;-68
2022/03/06 00:13:56;;;;;;;340.67;99.07;;;;;;;4.33;100.00;99605.66;343993;28;1231;-68
2022/03/06 00:14:07;;;;;;;341.10;99.63;;;;;;;4.35;100.00;99603.91;344069;28;839;-68
2022/03/06 00:14:17;;;;;;;347.88;103.88;;;;;;;4.35;100.00;99603.91;341282;29;963;-68
2022/03/06 00:14:28;;;;;;;346.73;103.47;;;;;;;4.40;100.00;99613.34;342565;28;929;-68
2022/03/06 00:14:38;;;;;;;345.42;102.68;;;;;;;4.38;100.00;99604.75;342671;28;1203;-68
2022/03/06 00:14:48;;;;;;;342.67;101.33;;;;;;;4.39;100.00;99607.31;343952;28;1321;-68
2022/03/06 00:14:59;;;;;;;345.90;103.23;;;;;;;4.40;100.00;99603.00;341444;29;864;-69
2022/03/06 00:15:09;;;;;;;346.85;105.25;;;;;;;4.40;100.00;99603.00;344027;28;1273;-69
2022/03/06 00:15:21;;;;;;;347.23;105.80;;;;;;;4.39;100.00;99602.13;341394;29;849;-69
2022/03/06 00:15:31;;;;;;;340.30;99.95;;;;;;;4.34;100.00;99609.97;341337;29;952;-69
2022/03/06 00:15:42;;;;;;;334.98;94.43;;;;;;;4.30;100.00;99608.34;342712;28;971;-69
2022/03/06 00:15:53;;;;;;;333.53;93.00;;;;;;;4.24;100.00;99603.25;340906;29;2063;-69
2022/03/06 00:16:03;;;;;;;331.05;92.32;;;;;;;4.26;100.00;99606.69;342545;28;805;-69
2022/03/06 00:16:14;;;;;;;335.90;97.35;;;;;;;4.29;100.00;99596.25;342682;28;893;-69
2022/03/06 00:16:24;;;;;;;341.53;101.33;;;;;;;4.31;100.00;99615.22;342572;28;921;-68
2022/03/06 00:16:35;;;;;;;348.48;105.25;;;;;;;4.31;100.00;99604.88;342761;28;841;-68
2022/03/06 00:16:46;;;;;;;348.03;106.43;;;;;;;4.35;100.00;99606.50;345295;28;1984;-68
2022/03/06 00:16:56;;;;;;;347.25;106.50;;;;;;;4.38;100.00;99604.75;343983;28;825;-69
2022/03/06 00:17:06;;;;;;;346.50;106.27;;;;;;;4.40;100.00;99597.81;340088;29;983;-69
2022/03/06 00:17:17;;;;;;;348.77;106.07;;;;;;;4.40;100.00;99603.84;341397;29;1020;-69
2022/03/06 00:17:28;;;;;;;342.15;103.00;;;;;;;4.34;100.00;99599.63;340649;29;1299;-69
2022/03/06 00:17:38;;;;;;;339.23;99.05;;;;;;;4.33;100.00;99603.09;340094;29;897;-68
2022/03/06 00:17:49;;;;;;;336.20;95.67;;;;;;;4.32;100.00;99596.22;340080;29;972;-68
2022/03/06 00:17:59;;;;;;;344.13;99.65;;;;;;;4.35;100.00;99605.66;345290;28;908;-68
2022/03/06 00:18:10;;;;;;;346.25;103.47;;;;;;;4.35;100.00;99605.66;342717;28;1284;-68
2022/03/06 00:18:20;;;;;;;349.80;106.03;;;;;;;4.34;100.00;99597.03;342493;28;1544;-68
2022/03/06 00:18:31;;;;;;;346.27;104.03;;;;;;;4.30;100.00;99597.97;343072;28;1586;-68
2022/03/06 00:18:41;;;;;;;338.97;98.50;;;;;;;4.30;100.00;99608.34;340028;28;1222;-68
2022/03/06 00:18:51;;;;;;;337.23;98.03;;;;;;;4.30;100.00;99607.50;340092;29;1287;-68
2022/03/06 00:19:02;;;;;;;335.17;95.90;;;;;;;4.29;100.00;99601.44;344108;28;910;-68
2022/03/06 00:19:12;;;;;;;337.63;97.78;;;;;;;4.27;100.00;99602.34;342651;28;1273;-68
2022/03/06 00:19:23;;;;;;;335.10;94.43;;;;;;;4.26;100.00;99598.06;342713;28;1006;-68
2022/03/06 00:19:33;;;;;;;337.37;97.27;;;;;;;4.29;100.00;99601.44;343925;28;1370;-68
2022/03/06 00:19:44;;;;;;;340.58;99.38;;;;;;;4.28;100.00;99594.56;344021;28;897;-68
2022/03/06 00:19:54;;;;;;;338.58;98.10;;;;;;;4.28;100.00;99604.06;341473;29;952;-68
2022/03/06 00:20:08;;;;;;;342.97;99.90;;;;;;;4.32;100.00;99593.63;341373;29;1109;-68
2022/03/06 00:20:18;;;;;;;349.95;103.53;;;;;;;4.37;100.00;99597.84;341413;29;1016;-68
2022/03/06 00:20:29;;;;;;;352.90;105.82;;;;;;;4.37;100.00;99603.03;343902;28;1191;-69
2022/03/06 00:20:41;;;;;;;351.30;105.20;;;;;;;4.40;100.00;99597.81;344889;28;2096;-69
2022/03/06 00:20:53;;;;;;;346.23;103.90;;;;;;;4.37;100.00;99587.50;341389;29;1121;-69
2022/03/06 00:21:07;;;;;;;346.40;102.22;;;;;;;4.36;100.00;99599.59;342498;28;2039;-69
2022/03/06 00:21:17;;;;;;;349.05;100.38;;;;;;;4.35;100.00;99601.31;345299;28;1299;-69
2022/03/06 00:21:27;;;;;;;354.17;104.10;;;;;;;4.39;100.00;99601.28;341812;28;1581;-69
2022/03/06 00:21:39;;;;;;;355.23;107.07;;;;;;;4.43;100.00;99602.94;344094;28;962;-69
2022/03/06 00:21:49;;;;;;;353.73;107.65;;;;;;;4.46;100.00;99601.16;344063;28;1010;-69
2022/03/06 00:21:59;;;;;;;351.02;107.05;;;;;;;4.49;100.00;99608.03;343862;28;1334;-69
2022/03/06 00:22:10;;;;;;;347.47;103.97;;;;;;;4.45;100.00;99591.66;345401;28;924;-69
2022/03/06 00:22:20;;;;;;;341.58;100.35;;;;;;;4.43;100.00;99592.56;343964;28;912;-68
2022/03/06 00:22:30;;;;;;;340.63;99.23;;;;;;;4.42;100.00;99603.81;343926;28;877;-67
2022/03/06 00:22:41;;;;;;;337.60;97.97;;;;;;;4.38;100.00;99602.16;341511;28;1252;-67
2022/03/06 00:22:51;;;;;;;337.00;96.50;;;;;;;4.31;100.00;99596.25;341285;28;1185;-68
2022/03/06 00:23:05;;;;;;;335.00;95.40;;;;;;;4.29;100.00;99596.25;344026;28;1291;-68
2022/03/06 00:23:19;;;;;;;338.35;96.22;;;;;;;4.31;100.00;99604.00;342798;28;967;-68
2022/03/06 00:23:30;;;;;;;343.92;100.88;;;;;;;4.33;100.00;99603.09;344263;28;1441;-68
2022/03/06 00:23:40;;;;;;;347.90;104.50;;;;;;;4.33;100.00;99610.84;345402;28;994;-68
2022/03/06 00:23:50;;;;;;;350.25;105.55;;;;;;;4.36;100.00;99597.00;342585;28;1274;-68
2022/03/06 00:24:01;;;;;;;354.03;106.17;;;;;;;4.38;100.00;99604.75;345284;28;1444;-68
2022/03/06 00:24:12;;;;;;;352.63;105.28;;;;;;;4.38;100.00;99605.59;342689;28;1287;-68
2022/03/06 00:24:22;;;;;;;353.05;106.65;;;;;;;4.39;100.00;99603.88;344033;28;999;-69
2022/03/06 00:24:33;;;;;;;349.83;104.80;;;;;;;4.37;100.00;99603.88;341230;28;1177;-69
2022/03/06 00:24:43;;;;;;;353.15;106.63;;;;;;;4.39;100.00;99607.31;341299;28;1349;-69
2022/03/06 00:24:56;;;;;;;351.37;104.10;;;;;;;4.38;100.00;99605.59;342693;28;1173;-68
2022/03/06 00:25:07;;;;;;;351.55;103.95;;;;;;;4.35;100.00;99610.81;342887;28;1675;-69
2022/03/06 00:25:17;;;;;;;346.50;99.53;;;;;;;4.33;100.00;99602.25;344062;28;995;-69
2022/03/06 00:25:28;;;;;;;347.87;101.50;;;;;;;4.37;100.00;99603.03;342304;28;2076;-69
2022/03/06 00:25:38;;;;;;;346.00;101.05;;;;;;;4.38;100.00;99599.56;341244;28;1370;-69
2022/03/06 00:25:48;;;;;;;347.23;103.90;;;;;;;4.37;100.00;99606.47;339988;28;1383;-69
2022/03/06 00:25:59;;;;;;;347.70;103.43;;;;;;;4.41;100.00;99610.72;340053;29;941;-69
2022/03/06 00:26:09;;;;;;;351.37;106.27;;;;;;;4.42;100.00;99612.44;340042;29;938;-69
2022/03/06 00:26:20;;;;;;;350.08;105.03;;;;;;;4.39;100.00;99609.91;340060;29;2156;-69
2022/03/06 00:26:30;;;;;;;347.67;103.20;;;;;;;4.37;100.00;99605.63;339944;29;849;-69
2022/03/06 00:26:40;;;;;;;345.52;102.65;;;;;;;4.38;100.00;99605.59;342530;28;1212;-69
2022/03/06 00:26:51;;;;;;;349.80;104.70;;;;;;;4.40;100.00;99608.16;343963;28;1558;-69
2022/03/06 00:27:01;;;;;;;350.17;105.38;;;;;;;4.39;100.00;99609.03;342752;28;921;-69
2022/03/06 00:27:12;;;;;;;349.93;105.27;;;;;;;4.40;100.00;99610.75;341386;28;1359;-69
2022/03/06 00:27:22;;;;;;;350.55;105.90;;;;;;;4.43;100.00;99613.31;344035;28;868;-69
2022/03/06 00:27:32;;;;;;;351.33;105.83;;;;;;;4.45;100.00;99608.94;343880;28;1322;-69
2022/03/06 00:27:43;;;;;;;350.60;106.05;;;;;;;4.46;100.00;99602.88;343877;28;903;-69
2022/03/06 00:27:53;;;;;;;347.70;105.87;;;;;;;4.48;100.00;99609.75;343992;28;1196;-69
2022/03/06 00:28:04;;;;;;;346.70;106.97;;;;;;;4.50;100.00;99609.75;340007;29;1011;-69
2022/03/06 00:28:14;;;;;;;345.58;106.40;;;;;;;4.50;100.00;99605.41;342708;28;945;-69
2022/03/06 00:28:24;;;;;;;346.83;106.50;;;;;;;4.51;100.00;99607.13;342603;28;1627;-69
2022/03/06 00:28:35;;;;;;;343.15;103.38;;;;;;;4.48;100.00;99616.69;345411;28;875;-69
2022/03/06 00:28:46;;;;;;;345.00;104.25;;;;;;;4.48;100.00;99612.34;344097;28;965;-69
2022/03/06 00:28:56;;;;;;;343.13;102.47;;;;;;;4.50;100.00;99618.38;345361;28;976;-69
2022/03/06 00:29:07;;;;;;;344.98;103.47;;;;;;;4.46;100.00;99611.53;345418;28;991;-69
2022/03/06 00:29:17;;;;;;;340.17;99.43;;;;;;;4.45;100.00;99614.13;343977;28;1266;-69
2022/03/06 00:29:28;;;;;;;341.73;102.07;;;;;;;4.46;100.00;99621.03;345340;28;988;-69
2022/03/06 00:29:38;;;;;;;341.47;101.83;;;;;;;4.40;100.00;99618.53;344072;28;928;-69
2022/03/06 00:29:48;;;;;;;337.63;99.93;;;;;;;4.31;100.00;99597.09;342727;28;998;-69
2022/03/06 00:29:59;;;;;;;335.40;96.90;;;;;;;4.34;100.00;99607.38;342752;28;1199;-69
2022/03/06 00:30:09;;;;;;;338.42;97.72;;;;;;;4.34;100.00;99617.75;340746;29;1724;-69
2022/03/06 00:30:20;;;;;;;342.73;100.63;;;;;;;4.34;100.00;99612.56;341295;29;1161;-68
2022/03/06 00:30:30;;;;;;;343.00;100.78;;;;;;;4.34;100.00;99603.94;342538;28;1244;-68
2022/03/06 00:30:42;;;;;;;343.47;101.83;;;;;;;4.37;100.00;99605.63;343978;28;963;-68
2022/03/06 00:30:52;;;;;;;342.40;100.88;;;;;;;4.35;100.00;99619.47;342561;28;1281;-69
2022/03/06 00:31:03;;;;;;;339.90;99.03;;;;;;;4.32;100.00;99613.50;341306;29;771;-68
2022/03/06 00:31:13;;;;;;;338.73;96.30;;;;;;;4.32;100.00;99611.75;340039;28;1380;-68
2022/03/06 00:31:24;;;;;;;340.83;97.50;;;;;;;4.28;100.00;99607.50;339756;29;2115;-69
2022/03/06 00:31:34;;;;;;;344.57;98.50;;;;;;;4.29;100.00;99622.16;342597;28;846;-69
2022/03/06 00:31:44;;;;;;;342.15;99.45;;;;;;;4.29;100.00;99613.53;343882;28;1329;-69
2022/03/06 00:31:55;;;;;;;344.00;100.17;;;;;;;4.28;100.00;99612.69;344704;28;905;-68
2022/03/06 00:32:05;;;;;;;340.80;99.17;;;;;;;4.30;100.00;99608.34;344112;28;976;-68
2022/03/06 00:32:16;;;;;;;341.45;99.95;;;;;;;4.30;100.00;99605.75;342726;28;1034;-68
2022/03/06 00:32:26;;;;;;;344.17;101.10;;;;;;;4.30;100.00;99603.16;341290;29;833;-68
2022/03/06 00:32:37;;;;;;;345.90;101.03;;;;;;;4.30;100.00;99613.53;341356;28;878;-68
2022/03/06 00:32:47;;;;;;;344.35;101.78;;;;;;;4.32;100.00;99606.59;341250;28;1240;-69
2022/03/06 00:32:58;;;;;;;342.40;101.43;;;;;;;4.35;100.00;99616.00;341385;28;1079;-69
2022/03/06 00:33:08;;;;;;;343.45;102.70;;;;;;;4.35;100.00;99609.09;341388;29;854;-69
2022/03/06 00:33:19;;;;;;;342.40;101.13;;;;;;;4.33;100.00;99613.44;345261;28;1251;-69
2022/03/06 00:33:29;;;;;;;341.07;100.43;;;;;;;4.30;100.00;99602.31;343911;28;1566;-69
2022/03/06 00:33:40;;;;;;;341.90;99.80;;;;;;;4.30;100.00;99612.66;343981;28;827;-69
2022/03/06 00:33:51;;;;;;;342.77;100.33;;;;;;;4.33;100.00;99605.66;341380;29;991;-69
2022/03/06 00:34:01;;;;;;;344.27;102.40;;;;;;;4.34;100.00;99606.53;344153;28;977;-69
2022/03/06 00:34:12;;;;;;;348.15;103.97;;;;;;;4.33;100.00;99605.66;342740;28;1090;-69
2022/03/06 00:34:22;;;;;;;348.17;101.63;;;;;;;4.35;100.00;99605.66;343865;28;977;-69
2022/03/06 00:34:32;;;;;;;349.35;100.47;;;;;;;4.34;100.00;99612.56;339917;28;1321;-69
2022/03/06 00:34:44;;;;;;;343.60;99.73;;;;;;;4.35;100.00;99610.81;344031;28;866;-69
2022/03/06 00:34:55;;;;;;;340.42;99.72;;;;;;;4.35;100.00;99601.31;344066;28;960;-69
2022/03/06 00:35:06;;;;;;;343.27;102.43;;;;;;;4.37;100.00;99603.88;343590;28;2090;-69
2022/03/06 00:35:16;;;;;;;345.83;102.70;;;;;;;4.40;100.00;99603.00;344044;28;966;-69
2022/03/06 00:35:28;;;;;;;351.53;105.50;;;;;;;4.43;100.00;99608.13;342550;28;1161;-69
2022/03/06 00:35:39;;;;;;;352.05;104.55;;;;;;;4.41;100.00;99596.94;345283;28;1448;-69
2022/03/06 00:35:49;;;;;;;347.27;100.88;;;;;;;4.38;100.00;99600.41;344010;28;850;-69
2022/03/06 00:35:59;;;;;;;339.67;96.87;;;;;;;4.38;100.00;99609.94;344043;28;1029;-69
2022/03/06 00:36:10;;;;;;;339.05;97.55;;;;;;;4.37;100.00;99609.06;345455;28;978;-68
2022/03/06 00:36:20;;;;;;;343.77;99.70;;;;;;;4.34;100.00;99619.47;342539;28;1356;-68
2022/03/06 00:36:31;;;;;;;345.27;101.03;;;;;;;4.30;100.00;99608.34;338608;29;1198;-68
2022/03/06 00:36:41;;;;;;;344.93;101.43;;;;;;;4.31;100.00;99609.19;338764;29;981;-68
2022/03/06 00:36:51;;;;;;;345.47;103.27;;;;;;;4.31;100.00;99615.22;343723;28;1987;-68
2022/03/06 00:37:04;;;;;;;348.48;104.88;;;;;;;4.31;100.00;99612.66;342606;28;1318;-69
2022/03/06 00:37:15;;;;;;;350.08;104.80;;;;;;;4.33;100.00;99607.44;342736;28;971;-69
2022/03/06 00:37:25;;;;;;;352.27;105.13;;;;;;;4.32;100.00;99616.09;343234;28;991;-69
2022/03/06 00:37:36;;;;;;;347.00;102.93;;;;;;;4.31;100.00;99607.47;341312;29;998;-69
2022/03/06 00:37:46;;;;;;;344.55;103.03;;;;;;;4.31;100.00;99614.38;342684;28;818;-69
2022/03/06 00:37:56;;;;;;;344.60;103.00;;;;;;;4.31;100.00;99596.25;344070;28;853;-69
2022/03/06 00:38:07;;;;;;;344.63;102.83;;;;;;;4.32;100.00;99608.31;344003;28;861;-69
2022/03/06 00:38:17;;;;;;;343.87;101.27;;;;;;;4.32;100.00;99603.13;342796;28;881;-69
2022/03/06 00:38:28;;;;;;;343.87;101.20;;;;;;;4.33;100.00;99597.91;339695;28;1086;-68
2022/03/06 00:38:38;;;;;;;343.52;101.90;;;;;;;4.34;100.00;99601.34;345337;28;1437;-69
2022/03/06 00:38:48;;;;;;;342.83;102.17;;;;;;;4.34;100.00;99593.56;345449;28;943;-69
2022/03/06 00:38:59;;;;;;;341.20;102.18;;;;;;;4.37;100.00;99603.03;344090;28;930;-69
2022/03/06 00:39:10;;;;;;;344.97;104.37;;;;;;;4.38;100.00;99600.41;342731;28;933;-69
2022/03/06 00:39:20;;;;;;;346.92;104.74;;;;;;;4.39;100.00;99607.31;342571;28;1140;-70
2022/03/06 00:39:31;;;;;;;346.40;104.80;;;;;;;4.39;100.00;99603.88;342727;28;877;-70
2022/03/06 00:39:42;;;;;;;344.00;102.63;;;;;;;4.38;100.00;99603.00;343901;28;1277;-70
2022/03/06 00:39:52;;;;;;;344.77;102.75;;;;;;;4.38;100.00;99604.75;343608;28;2732;-70
2022/03/06 00:40:03;;;;;;;348.70;103.68;;;;;;;4.40;100.00;99603.84;341364;29;1026;-70
2022/03/06 00:40:14;;;;;;;349.13;104.50;;;;;;;4.38;100.00;99604.75;339921;29;1693;-70
2022/03/06 00:40:24;;;;;;;344.48;102.43;;;;;;;4.34;100.00;99604.78;339900;28;1229;-68
2022/03/06 00:40:36;;;;;;;339.33;99.40;;;;;;;4.33;100.00;99604.84;340134;29;889;-68
2022/03/06 00:40:47;;;;;;;340.65;100.15;;;;;;;4.34;100.00;99599.63;342760;28;970;-68
2022/03/06 00:40:57;;;;;;;342.08;100.70;;;;;;;4.35;100.00;99606.50;344037;28;1146;-68
2022/03/06 00:41:08;;;;;;;344.80;101.80;;;;;;;4.37;100.00;99603.03;344052;28;881;-68
2022/03/06 00:41:18;;;;;;;345.50;102.90;;;;;;;4.39;100.00;99607.31;344000;28;1370;-68
2022/03/06 00:41:28;;;;;;;346.13;103.73;;;;;;;4.37;100.00;99592.66;339876;29;1278;-68
2022/03/06 00:41:39;;;;;;;345.80;104.10;;;;;;;4.36;100.00;99599.59;343819;28;1308;-68
2022/03/06 00:41:49;;;;;;;346.43;103.27;;;;;;;4.35;100.00;99601.31;343914;28;1594;-68
2022/03/06 00:42:00;;;;;;;347.30;102.90;;;;;;;4.35;100.00;99588.38;343998;28;913;-68
2022/03/06 00:42:10;;;;;;;347.73;102.97;;;;;;;4.37;100.00;99598.72;343994;28;984;-68
2022/03/06 00:42:21;;;;;;;349.27;103.33;;;;;;;4.38;100.00;99594.38;341338;29;1052;-68
2022/03/06 00:42:31;;;;;;;345.90;102.10;;;;;;;4.35;100.00;99601.31;343988;28;996;-68
2022/03/06 00:42:42;;;;;;;345.07;102.67;;;;;;;4.33;100.00;99608.25;343982;28;1196;-68
2022/03/06 00:42:52;;;;;;;347.37;104.60;;;;;;;4.33;100.00;99597.91;342698;28;953;-68
2022/03/06 00:43:03;;;;;;;349.08;106.80;;;;;;;4.35;100.00;99603.06;342685;28;982;-68
2022/03/06 00:43:13;;;;;;;347.98;104.25;;;;;;;4.32;100.00;99606.59;340051;29;1305;-68
2022/03/06 00:43:23;;;;;;;343.93;102.17;;;;;;;4.34;100.00;99604.78;343882;28;1294;-68
2022/03/06 00:43:34;;;;;;;344.23;101.85;;;;;;;4.32;100.00;99606.59;342913;28;1089;-68
2022/03/06 00:43:44;;;;;;;341.37;100.00;;;;;;;4.30;100.00;99600.56;344054;28;830;-68
2022/03/06 00:43:55;;;;;;;344.87;100.57;;;;;;;4.31;100.00;99598.84;342662;28;973;-68
2022/03/06 00:44:05;;;;;;;343.58;98.28;;;;;;;4.29;100.00;99595.41;342735;28;1042;-69
2022/03/06 00:44:16;;;;;;;346.37;100.37;;;;;;;4.28;100.00;99609.25;343839;28;1179;-69
2022/03/06 00:44:26;;;;;;;343.05;98.88;;;;;;;4.28;100.00;99599.75;343979;28;884;-69
2022/03/06 00:44:37;;;;;;;343.60;101.35;;;;;;;4.28;100.00;99604.06;341864;28;1572;-68
2022/03/06 00:44:47;;;;;;;339.80;99.83;;;;;;;4.26;100.00;99606.69;341335;29;1149;-68
2022/03/06 00:44:58;;;;;;;340.45;99.75;;;;;;;4.28;100.00;99604.06;342601;28;1209;-68
2022/03/06 00:45:08;;;;;;;343.17;99.13;;;;;;;4.30;100.00;99605.75;344032;28;1147;-68
2022/03/06 00:45:19;;;;;;;345.42;101.53;;;;;;;4.32;100.00;99601.41;344051;28;1018;-68
2022/03/06 00:45:29;;;;;;;347.17;104.17;;;;;;;4.35;100.00;99598.72;344036;28;885;-68
2022/03/06 00:45:39;;;;;;;345.40;103.50;;;;;;;4.35;100.00;99601.31;343937;28;1345;-68
2022/03/06 00:45:50;;;;;;;348.70;104.77;;;;;;;4.34;100.00;99602.19;342573;28;1432;-68
2022/03/06 00:46:00;;;;;;;348.83;104.13;;;;;;;4.37;100.00;99603.88;341169;29;873;-68
2022/03/06 00:46:11;;;;;;;349.03;104.80;;;;;;;4.39;100.00;99596.09;339987;29;1180;-68
2022/03/06 00:46:21;;;;;;;346.52;103.63;;;;;;;4.38;100.00;99600.41;340160;29;1538;-68
2022/03/06 00:46:31;;;;;;;344.53;103.53;;;;;;;4.39;100.00;99607.31;343930;28;1279;-68
2022/03/06 00:46:42;;;;;;;344.63;102.90;;;;;;;4.40;100.00;99603.00;342528;28;1301;-68
2022/03/06 00:46:52;;;;;;;342.97;99.60;;;;;;;4.37;100.00;99600.44;342578;28;1617;-68
2022/03/06 00:47:03;;;;;;;345.10;99.97;;;;;;;4.34;100.00;99598.75;340200;29;888;-68
2022/03/06 00:47:14;;;;;;;341.95;99.63;;;;;;;4.32;100.00;99595.38;342683;28;1040;-68
2022/03/06 00:47:24;;;;;;;339.70;100.20;;;;;;;4.31;100.00;99599.69;342627;28;870;-68
2022/03/06 00:47:34;;;;;;;337.45;97.10;;;;;;;4.29;100.00;99596.25;338699;29;1194;-68
2022/03/06 00:47:45;;;;;;;338.17;96.03;;;;;;;4.28;100.00;99604.91;339997;29;1003;-68
2022/03/06 00:47:55;;;;;;;337.03;93.77;;;;;;;4.26;100.00;99606.69;340078;29;868;-68
2022/03/06 00:48:06;;;;;;;336.25;92.75;;;;;;;4.23;100.00;99617.09;342693;28;845;-68
2022/03/06 00:48:16;;;;;;;335.00;92.00;;;;;;;4.23;100.00;99600.69;345416;28;832;-68
2022/03/06 00:48:26;;;;;;;331.27;90.83;;;;;;;4.20;100.00;99601.59;343912;28;875;-68
2022/03/06 00:48:37;;;;;;;326.27;89.13;;;;;;;4.19;100.00;99605.06;342976;28;1150;-68
2022/03/06 00:48:47;;;;;;;330.10;92.83;;;;;;;4.23;100.00;99600.69;344019;28;858;-68
2022/03/06 00:48:58;;;;;;;335.93;97.40;;;;;;;4.22;100.00;99607.59;341386;28;1200;-68